Terminal Aerodrome Forecast
Issued by NWS

Current Version | Previous Version | Text Only | Print | Product List | Glossary On
Versions: 1 2 3 4 5 6 7 8 9 10 11 12 13
000
FTPA31 PHFO 110215 AAA
TAFHTO
TAF AMD
PHTO 110215Z 1102/1124 VRB06KT P6SM VCSH SCT018 BKN030 OVC060
      TEMPO 1102/1104 5SM SHRA BKN018 BKN035
     FM110600 23004KT P6SM VCSH SCT025 BKN050 OVC100
     FM111900 12007KT P6SM VCSH SCT025 BKN050 OVC150=

USA.gov is the U.S. government's official web portal to all federal, state and local government web resources and services.